Terminal Aerodrome Forecast
Issued by NWS Huntsville, AL

Home | Current Version | Previous Version | Text Only | Print | Product List | Glossary On
Versions: 1 2 3 4 5 6 7 8 9 10 11 12 13 14 15 16 17 18 19 20 21 22 23
000
FTUS44 KHUN 282320
TAFMSL
TAF
KMSL 282320Z 2900/2924 01004KT 5SM -RA BR OVC008
     FM290500 VRB03KT 4SM BR SCT004 OVC007
     FM290900 02005KT 2SM BR BKN004 OVC007
     FM291500 01004KT 6SM BR SCT005 OVC015=

USA.gov is the U.S. government's official web portal to all federal, state and local government web resources and services.